HALF-HOURLY OBSERVATIONS INDEX

097

West Coast Mountain Region

CAPE SORELL

Site: 097000
Alt: 19.3m
34km WSW of QUEENSTOWN


  Time     Wind        Temp  DP   Baro     Rain since   Rain past  Vis(m), Cloud(base in m), Weather
  local        km/h                         9am  last   hr   10m    
Mon 11:00    S 13/ 19  15.8  7.1  1020.7    0.0   0.0   0.0   0.0   ----- 
Mon 11:30  SSW 13/ 17  17.1  7.5  1020.9    0.0   0.0   0.0   0.0   ----- 
Mon 12:00  SSW 11/ 15  16.9  7.3  1021.1    0.0   0.0   0.0   0.0   ----- 
Mon 12:30    S 13/ 17  17.0  7.1  1021.1    0.0   0.0   0.0   0.0   ----- 
Mon 13:00  SSW 15/ 17  17.4  7.7  1021.0    0.0   0.0   0.0   0.0   ----- 
Mon 13:30  SSW 13/ 17  18.3  8.0  1021.0    0.0   0.0   0.0   0.0   ----- 
Mon 14:00  SSW 13/ 17  18.5  7.3  1021.1    0.0   0.0   0.0   0.0   ----- 
Mon 14:30   SW 17/ 20  18.4  7.8  1021.1    0.0   0.0   0.0   0.0   ----- 
Mon 15:00   SW 15/ 19  18.6  8.3  1020.9    0.0   0.0   0.0   0.0   ----- 
Mon 15:30   SW 15/ 20  18.9  8.6  1020.9    0.0   0.0   0.0   0.0   ----- 
Mon 16:00  SSW 17/ 20  18.4  8.4  1020.5    0.0   0.0   0.0   0.0   ----- 
Mon 16:30   SW 19/ 24  17.5  7.8  1020.4    0.0   0.0   0.0   0.0   ----- 

LOW ROCKY POINT

Site: 097080
Alt: 34.0m
51km WSW of STRATHGORDON VILLAGE


  Time     Wind        Temp  DP   Baro     Rain since   Rain past  Vis(m), Cloud(base in m), Weather
  local        km/h                         9am  last   hr   10m    
Mon 11:00  WSW 13/ 17  15.2  5.1  1020.7    0.0   0.0   0.0   0.0   ----- 
Mon 11:30    W 11/ 17  15.5  5.7  1020.7    0.0   0.0   0.0   0.0   ----- 
Mon 12:00  WNW 13/ 15  15.8  5.1  1020.9    0.0   0.0   0.0   0.0   ----- 
Mon 12:30   NW 17/ 22  16.2  6.3  1021.0    0.0   0.0   0.0   0.0   ----- 
Mon 13:00  WNW 17/ 22  15.7  7.2  1021.1    0.0   0.0   0.0   0.0   ----- 
Mon 13:30   NW 19/ 24  17.5  8.4  1021.1    0.0   0.0   0.0   0.0   ----- 
Mon 14:00  WNW 19/ 22  17.0  7.1  1021.2    0.0   0.0   0.0   0.0   ----- 
Mon 14:30  WNW 20/ 26  16.9  7.0  1021.3    0.0   0.0   0.0   0.0   ----- 
Mon 15:00    W 22/ 28  17.3  7.9  1021.2    0.0   0.0   0.0   0.0   ----- 
Mon 15:30    W 22/ 28  16.7  7.4  1021.1    0.0   0.0   0.0   0.0   ----- 
Mon 16:00    W 22/ 28  17.0  7.1  1020.8    0.0   0.0   0.0   0.0   ----- 
Mon 16:30    W 22/ 26  17.1  7.5  1020.6    0.0   0.0   0.0   0.0   ----- 

MOUNT READ

Site: 097085
Alt: 1119.5m
26km N of QUEENSTOWN


  Time     Wind        Temp  DP   Baro     Rain since   Rain past  Vis(m), Cloud(base in m), Weather
  local        km/h                         9am  last   hr   10m    
Mon 11:00  SSE 19/ 24   5.2  3.2  1019.2    0.0   0.0   0.0   0.0   ----- 
Mon 11:30    S 20/ 26   5.6  3.1  1019.5    0.0   0.0   0.0   0.0   ----- 
Mon 12:00    S 20/ 30   6.8  3.2  1019.6    0.0   0.0   0.0   0.0   ----- 
Mon 12:30    S 20/ 32   7.4  4.2  1019.7    0.0   0.0   0.0   0.0   ----- 
Mon 13:00    S 26/ 35   7.7  4.1  1019.5    0.0   0.0   0.0   0.0   ----- 
Mon 13:30    S 22/ 32   8.1  4.9  1019.8    0.0   0.0   0.0   0.0   ----- 
Mon 14:00    S 24/ 33   8.5  4.9  1019.8    0.0   0.0   0.0   0.0   ----- 
Mon 14:30    S 20/ 28   9.2  4.6  1020.1    0.0   0.0   0.0   0.0   ----- 
Mon 15:00    S 26/ 33   9.3  5.1  1020.1    0.0   0.0   0.0   0.0   ----- 
Mon 15:30    S 24/ 37   9.9  5.7  1019.8    0.0   0.0   0.0   0.0   ----- 
Mon 16:00  SSW 20/ 28   9.6  4.6  1020.0    0.0   0.0   0.0   0.0   ----- 
Mon 16:30    S 19/ 32   9.5  4.7  1019.8    0.0   0.0   0.0   0.0   ----- 

SCOTTS PEAK DAM

Site: 097083
Alt: 408.0m
36km SSE of STRATHGORDON VILLAGE


  Time     Wind        Temp  DP   Baro     Rain since   Rain past  Vis(m), Cloud(base in m), Weather
  local        km/h                         9am  last   hr   10m    
Mon 11:00   SW 15/ 26  12.1  5.3  ------    0.0   0.0   0.0   0.0   ----- 
Mon 11:30  WSW 19/ 30  12.1  3.9  ------    0.0   0.0   0.0   0.0   ----- 
Mon 12:00  WSW 17/ 24  13.8  5.9  ------    0.0   0.0   0.0   0.0   ----- 
Mon 12:30  WSW 20/ 30  12.7  5.6  ------    0.2   0.2   0.2   0.0   ----- 
Mon 13:00    W 19/ 28  14.4  5.2  ------    0.2   0.0   0.2   0.0   ----- 
Mon 13:30  WSW 19/ 26  13.6  4.7  ------    0.2   0.0   0.0   0.0   ----- 
Mon 14:00  WSW 19/ 26  13.2  4.9  ------    0.2   0.0   0.0   0.0   ----- 
Mon 14:30   SW 17/ 24  14.0  5.4  ------    0.2   0.0   0.0   0.0   ----- 
Mon 15:00   SW 11/ 20  13.8  5.9  ------    0.2   0.0   0.0   0.0   ----- 
Mon 15:30  WSW 13/ 20  14.4  7.0  ------    0.2   0.0   0.0   0.0   ----- 
Mon 16:00    W 17/ 24  16.2  6.9  ------    0.2   0.0   0.0   0.0   ----- 
Mon 16:30  WSW 15/ 24  13.8  5.2  ------    0.2   0.0   0.0   0.0   ----- 

STRAHAN AERODROME

Site: 097072
Alt: 21.0m
23km WSW of QUEENSTOWN


  Time     Wind        Temp  DP   Baro     Rain since   Rain past  Vis(m), Cloud(base in m), Weather
  local        km/h                         9am  last   hr   10m    
Mon 11:00  SSE 13/ 20  15.2  6.2  1021.0    0.0   0.0   0.0   0.0   10000|BR1410 
Mon 11:30   SE 13/ 20  15.7  7.0  1021.2    0.0   0.0   0.0   0.0   10000|SC1560 
Mon 12:00   SE 15/ 22  16.4  7.9  1021.2    0.0   0.0   0.0   0.0   10000|SC1500 
Mon 12:30   SE 13/ 24  16.3  5.6  1021.3    0.0   0.0   0.0   0.0   10000|SC1560 
Mon 13:00   SE 13/ 20  17.3  6.2  1021.1    0.0   0.0   0.0   0.0   10000|SC1560 
Mon 13:30    S 13/ 20  17.4  6.9  1021.1    0.0   0.0   0.0   0.0   10000 
Mon 14:00    S 17/ 20  17.3  6.5  1021.2    0.0   0.0   0.0   0.0   10000 
Mon 14:30  SSW 13/ 20  17.2  7.0  1021.1    0.0   0.0   0.0   0.0   10000|SC1290 
Mon 15:00  SSW 20/ 32  17.5  7.5  1021.1    0.0   0.0   0.0   0.0   10000|SC1320 
Mon 15:30  SSW 19/ 28  17.6  7.9  1020.9    0.0   0.0   0.0   0.0   10000 
Mon 16:00    S 17/ 26  17.2  7.0  1020.5    0.0   0.0   0.0   0.0   10000 
Mon 16:30   SW 22/ 39  17.0  7.9  1020.4    0.0   0.0   0.0   0.0   10000 

WARRA

Site: 097024
Alt: 495.0m
28km W of HUONVILLE


  Time     Wind        Temp  DP   Baro     Rain since   Rain past  Vis(m), Cloud(base in m), Weather
  local        km/h                         9am  last   hr   10m    
Mon 11:00   SW 15/ 32  11.1  4.1  ------    0.0   0.0   0.0   0.0   ----- 
Mon 11:30   SW 15/ 26  12.5  5.0  ------    0.0   0.0   0.0   0.0   ----- 
Mon 12:00   SW 15/ 32  12.6  3.0  ------    0.0   0.0   0.0   0.0   ----- 
Mon 12:30   SW 13/ 22  13.6  5.0  ------    0.0   0.0   0.0   0.0   ----- 
Mon 13:00  WSW 15/ 24  14.3  5.4  ------    0.0   0.0   0.0   0.0   ----- 
Mon 13:30  WSW 20/ 32  14.1  4.1  ------    0.0   0.0   0.0   0.0   ----- 
Mon 14:00    W 19/ 30  13.8  3.6  ------    0.0   0.0   0.0   0.0   ----- 
Mon 14:30    W 15/ 24  14.6  5.1  ------    0.0   0.0   0.0   0.0   ----- 
Mon 15:00  WSW 15/ 30  14.5  3.9  ------    0.0   0.0   0.0   0.0   ----- 
Mon 15:30   SW 13/ 28  15.2  4.6  ------    0.0   0.0   0.0   0.0   ----- 
Mon 16:00   SW 13/ 26  15.9  5.2  ------    0.0   0.0   0.0   0.0   ----- 
Mon 16:30  WSW 17/ 30  14.3  5.4  ------    0.0   0.0   0.0   0.0   -----